sensor_id;sensor_type;location;lat;lon;timestamp;pressure;altitude;pressure_sealevel;temperature;humidity
63554;BME280;49699;48.072;7.800;2023-04-01T00:02:06;98387.34;;;8.42;76.21
63554;BME280;49699;48.072;7.800;2023-04-01T00:04:31;98385.31;;;8.32;76.66
63554;BME280;49699;48.072;7.800;2023-04-01T00:06:57;98396.88;;;8.27;77.25
63554;BME280;49699;48.072;7.800;2023-04-01T00:09:22;98403.41;;;8.20;77.79
63554;BME280;49699;48.072;7.800;2023-04-01T00:11:47;98391.75;;;8.13;78.13
63554;BME280;49699;48.072;7.800;2023-04-01T00:14:13;98401.56;;;8.08;78.20
63554;BME280;49699;48.072;7.800;2023-04-01T00:16:38;98394.84;;;8.05;78.81
63554;BME280;49699;48.072;7.800;2023-04-01T00:19:03;98396.16;;;7.98;78.71
63554;BME280;49699;48.072;7.800;2023-04-01T00:21:29;98382.47;;;7.96;78.97
63554;BME280;49699;48.072;7.800;2023-04-01T00:23:54;98376.66;;;7.92;79.36
63554;BME280;49699;48.072;7.800;2023-04-01T00:26:21;98377.88;;;7.87;79.79
63554;BME280;49699;48.072;7.800;2023-04-01T00:28:46;98384.09;;;7.84;79.70
63554;BME280;49699;48.072;7.800;2023-04-01T00:31:12;98387.78;;;7.80;80.14
63554;BME280;49699;48.072;7.800;2023-04-01T00:33:38;98380.31;;;7.76;80.58
63554;BME280;49699;48.072;7.800;2023-04-01T00:36:10;98376.06;;;7.75;80.55
63554;BME280;49699;48.072;7.800;2023-04-01T00:38:37;98373.66;;;7.72;81.06
63554;BME280;49699;48.072;7.800;2023-04-01T00:41:02;98380.59;;;7.71;81.05
63554;BME280;49699;48.072;7.800;2023-04-01T00:43:27;98378.94;;;7.70;81.42
63554;BME280;49699;48.072;7.800;2023-04-01T00:45:53;98388.34;;;7.71;81.87
63554;BME280;49699;48.072;7.800;2023-04-01T00:48:28;98378.13;;;7.70;82.22
63554;BME280;49699;48.072;7.800;2023-04-01T00:51:17;98378.94;;;7.70;82.18
63554;BME280;49699;48.072;7.800;2023-04-01T00:53:44;98378.13;;;7.70;82.52
63554;BME280;49699;48.072;7.800;2023-04-01T00:58:37;98385.75;;;7.71;82.15
63554;BME280;49699;48.072;7.800;2023-04-01T01:01:03;98381.53;;;7.70;82.50
63554;BME280;49699;48.072;7.800;2023-04-01T01:03:29;98383.19;;;7.71;82.93
63554;BME280;49699;48.072;7.800;2023-04-01T01:11:19;98364.34;;;7.69;83.13
63554;BME280;49699;48.072;7.800;2023-04-01T01:13:57;98360.09;;;7.68;83.44
63554;BME280;49699;48.072;7.800;2023-04-01T01:16:25;98359.16;;;7.69;83.49
63554;BME280;49699;48.072;7.800;2023-04-01T01:21:30;98355.53;;;7.72;83.81
63554;BME280;49699;48.072;7.800;2023-04-01T01:24:11;98358.75;;;7.75;83.67
63554;BME280;49699;48.072;7.800;2023-04-01T01:32:11;98339.97;;;7.86;83.97
63554;BME280;49699;48.072;7.800;2023-04-01T01:34:53;98339.75;;;7.89;83.59
63554;BME280;49699;48.072;7.800;2023-04-01T01:37:21;98345.56;;;7.92;83.52
63554;BME280;49699;48.072;7.800;2023-04-01T01:39:50;98341.94;;;7.95;83.83
63554;BME280;49699;48.072;7.800;2023-04-01T01:42:17;98338.25;;;7.99;83.33
63554;BME280;49699;48.072;7.800;2023-04-01T01:44:44;98351.00;;;8.02;83.27
63554;BME280;49699;48.072;7.800;2023-04-01T01:47:10;98344.66;;;8.06;83.22
63554;BME280;49699;48.072;7.800;2023-04-01T01:49:36;98341.88;;;8.09;83.25
63554;BME280;49699;48.072;7.800;2023-04-01T01:52:04;98351.22;;;8.12;82.79
63554;BME280;49699;48.072;7.800;2023-04-01T01:54:29;98336.41;;;8.14;82.66
63554;BME280;49699;48.072;7.800;2023-04-01T01:57:07;98339.84;;;8.14;82.80
63554;BME280;49699;48.072;7.800;2023-04-01T01:59:37;98339.63;;;8.17;82.21
63554;BME280;49699;48.072;7.800;2023-04-01T02:02:03;98336.13;;;8.18;82.24
63554;BME280;49699;48.072;7.800;2023-04-01T02:04:36;98336.03;;;8.20;82.13
63554;BME280;49699;48.072;7.800;2023-04-01T02:07:04;98350.31;;;8.25;81.66
63554;BME280;49699;48.072;7.800;2023-04-01T02:09:32;98350.94;;;8.29;81.67
63554;BME280;49699;48.072;7.800;2023-04-01T02:12:09;98366.16;;;8.35;81.42
63554;BME280;49699;48.072;7.800;2023-04-01T02:14:47;98347.81;;;8.38;80.99
63554;BME280;49699;48.072;7.800;2023-04-01T02:17:19;98345.84;;;8.42;81.15
63554;BME280;49699;48.072;7.800;2023-04-01T02:19:50;98346.56;;;8.44;80.86
63554;BME280;49699;48.072;7.800;2023-04-01T02:22:18;98334.41;;;8.44;80.73
63554;BME280;49699;48.072;7.800;2023-04-01T02:24:45;98345.53;;;8.46;80.61
63554;BME280;49699;48.072;7.800;2023-04-01T02:27:11;98343.66;;;8.48;80.46
63554;BME280;49699;48.072;7.800;2023-04-01T02:29:36;98346.16;;;8.50;80.16
63554;BME280;49699;48.072;7.800;2023-04-01T02:32:05;98345.31;;;8.49;79.90
63554;BME280;49699;48.072;7.800;2023-04-01T02:34:31;98343.75;;;8.47;80.41
63554;BME280;49699;48.072;7.800;2023-04-01T02:36:58;98351.63;;;8.45;80.54
63554;BME280;49699;48.072;7.800;2023-04-01T02:39:23;98346.66;;;8.42;80.80
63554;BME280;49699;48.072;7.800;2023-04-01T02:41:50;98362.34;;;8.41;80.77
63554;BME280;49699;48.072;7.800;2023-04-01T02:44:15;98355.59;;;8.38;80.99
63554;BME280;49699;48.072;7.800;2023-04-01T02:46:42;98352.34;;;8.34;81.09
63554;BME280;49699;48.072;7.800;2023-04-01T02:49:07;98345.41;;;8.35;80.82
63554;BME280;49699;48.072;7.800;2023-04-01T02:51:33;98350.59;;;8.35;79.85
63554;BME280;49699;48.072;7.800;2023-04-01T02:53:58;98370.50;;;8.34;79.43
63554;BME280;49699;48.072;7.800;2023-04-01T02:56:23;98374.84;;;8.34;79.60
63554;BME280;49699;48.072;7.800;2023-04-01T02:58:49;98362.88;;;8.31;79.41
63554;BME280;49699;48.072;7.800;2023-04-01T03:01:14;98373.34;;;8.30;79.42
63554;BME280;49699;48.072;7.800;2023-04-01T03:03:40;98372.72;;;8.26;79.29
63554;BME280;49699;48.072;7.800;2023-04-01T03:06:06;98367.94;;;8.20;79.99
63554;BME280;49699;48.072;7.800;2023-04-01T03:08:31;98367.50;;;8.14;80.65
63554;BME280;49699;48.072;7.800;2023-04-01T03:10:57;98356.69;;;8.07;80.58
63554;BME280;49699;48.072;7.800;2023-04-01T03:13:22;98367.38;;;8.02;81.17
63554;BME280;49699;48.072;7.800;2023-04-01T03:15:47;98359.78;;;7.99;81.93
63554;BME280;49699;48.072;7.800;2023-04-01T03:18:13;98366.09;;;7.95;82.58
63554;BME280;49699;48.072;7.800;2023-04-01T03:20:38;98363.59;;;7.94;83.26
63554;BME280;49699;48.072;7.800;2023-04-01T03:23:04;98364.63;;;7.91;84.02
63554;BME280;49699;48.072;7.800;2023-04-01T03:25:29;98353.53;;;7.89;84.50
63554;BME280;49699;48.072;7.800;2023-04-01T03:27:55;98355.28;;;7.89;84.93
63554;BME280;49699;48.072;7.800;2023-04-01T03:30:21;98344.09;;;7.88;84.66
63554;BME280;49699;48.072;7.800;2023-04-01T03:32:49;98367.41;;;7.88;85.00
63554;BME280;49699;48.072;7.800;2023-04-01T03:35:15;98360.69;;;7.86;85.19
63554;BME280;49699;48.072;7.800;2023-04-01T03:37:40;98365.03;;;7.85;84.84
63554;BME280;49699;48.072;7.800;2023-04-01T03:40:05;98363.28;;;7.86;85.24
63554;BME280;49699;48.072;7.800;2023-04-01T03:42:31;98363.38;;;7.84;84.99
63554;BME280;49699;48.072;7.800;2023-04-01T03:44:57;98371.88;;;7.86;84.14
63554;BME280;49699;48.072;7.800;2023-04-01T03:47:22;98353.00;;;7.84;83.70
63554;BME280;49699;48.072;7.800;2023-04-01T03:49:48;98352.00;;;7.87;83.08
63554;BME280;49699;48.072;7.800;2023-04-01T03:52:13;98352.00;;;7.87;82.06
63554;BME280;49699;48.072;7.800;2023-04-01T03:54:39;98354.56;;;7.87;82.01
63554;BME280;49699;48.072;7.800;2023-04-01T03:57:04;98349.41;;;7.87;81.62
63554;BME280;49699;48.072;7.800;2023-04-01T03:59:30;98344.31;;;7.85;81.38
63554;BME280;49699;48.072;7.800;2023-04-01T04:01:56;98350.41;;;7.84;81.08
63554;BME280;49699;48.072;7.800;2023-04-01T04:04:21;98350.41;;;7.84;80.87
63554;BME280;49699;48.072;7.800;2023-04-01T04:06:47;98339.31;;;7.82;81.15
63554;BME280;49699;48.072;7.800;2023-04-01T04:09:14;98352.19;;;7.84;81.07
63554;BME280;49699;48.072;7.800;2023-04-01T04:11:39;98358.28;;;7.83;81.21
63554;BME280;49699;48.072;7.800;2023-04-01T04:14:04;98354.03;;;7.82;81.54
63554;BME280;49699;48.072;7.800;2023-04-01T04:16:30;98351.44;;;7.82;81.72
63554;BME280;49699;48.072;7.800;2023-04-01T04:18:59;98354.84;;;7.82;81.55
63554;BME280;49699;48.072;7.800;2023-04-01T04:21:24;98346.25;;;7.82;81.71
63554;BME280;49699;48.072;7.800;2023-04-01T04:23:50;98340.97;;;7.83;81.43
63554;BME280;49699;48.072;7.800;2023-04-01T04:26:17;98340.88;;;7.85;81.24
63554;BME280;49699;48.072;7.800;2023-04-01T04:28:49;98334.78;;;7.86;80.82
63554;BME280;49699;48.072;7.800;2023-04-01T04:31:20;98342.47;;;7.87;80.68
63554;BME280;49699;48.072;7.800;2023-04-01T04:33:46;98338.91;;;7.88;80.30
63554;BME280;49699;48.072;7.800;2023-04-01T04:36:11;98335.38;;;7.89;80.24
63554;BME280;49699;48.072;7.800;2023-04-01T04:38:37;98329.28;;;7.90;80.67
63554;BME280;49699;48.072;7.800;2023-04-01T04:41:02;98328.25;;;7.93;80.28
63554;BME280;49699;48.072;7.800;2023-04-01T04:43:28;98332.50;;;7.94;80.13
63554;BME280;49699;48.072;7.800;2023-04-01T04:45:55;98335.00;;;7.95;80.50
63554;BME280;49699;48.072;7.800;2023-04-01T04:48:20;98327.13;;;7.97;80.65
63554;BME280;49699;48.072;7.800;2023-04-01T04:50:47;98327.13;;;7.97;80.54
63554;BME280;49699;48.072;7.800;2023-04-01T04:53:13;98325.38;;;7.97;80.31
63554;BME280;49699;48.072;7.800;2023-04-01T04:55:42;98322.97;;;7.94;81.07
63554;BME280;49699;48.072;7.800;2023-04-01T04:58:18;98341.94;;;7.95;81.23
63554;BME280;49699;48.072;7.800;2023-04-01T05:00:44;98313.63;;;7.92;81.41
63554;BME280;49699;48.072;7.800;2023-04-01T05:03:17;98319.56;;;7.94;81.37
63554;BME280;49699;48.072;7.800;2023-04-01T05:05:53;98324.75;;;7.94;81.55
63554;BME280;49699;48.072;7.800;2023-04-01T05:08:19;98318.63;;;7.95;81.62
63554;BME280;49699;48.072;7.800;2023-04-01T05:10:45;98313.44;;;7.95;81.58
63554;BME280;49699;48.072;7.800;2023-04-01T05:13:11;98303.91;;;7.95;81.30
63554;BME280;49699;48.072;7.800;2023-04-01T05:15:36;98308.06;;;7.98;80.96
63554;BME280;49699;48.072;7.800;2023-04-01T05:18:02;98307.97;;;7.99;80.78
63554;BME280;49699;48.072;7.800;2023-04-01T05:20:28;98301.88;;;8.00;80.85
63554;BME280;49699;48.072;7.800;2023-04-01T05:22:56;98301.88;;;8.00;80.50
63554;BME280;49699;48.072;7.800;2023-04-01T05:25:22;98305.19;;;8.02;80.33
63554;BME280;49699;48.072;7.800;2023-04-01T05:27:47;98291.09;;;8.07;79.98
63554;BME280;49699;48.072;7.800;2023-04-01T05:30:12;98309.84;;;8.10;79.70
63554;BME280;49699;48.072;7.800;2023-04-01T05:32:59;98300.22;;;8.12;79.76
63554;BME280;49699;48.072;7.800;2023-04-01T05:35:25;98306.88;;;8.16;79.52
63554;BME280;49699;48.072;7.800;2023-04-01T05:37:50;98299.84;;;8.18;79.54
63554;BME280;49699;48.072;7.800;2023-04-01T05:40:16;98300.66;;;8.19;79.11
63554;BME280;49699;48.072;7.800;2023-04-01T05:42:41;98287.59;;;8.20;79.12
63554;BME280;49699;48.072;7.800;2023-04-01T05:45:06;98290.09;;;8.22;79.25
63554;BME280;49699;48.072;7.800;2023-04-01T05:47:51;98292.59;;;8.23;79.02
63554;BME280;49699;48.072;7.800;2023-04-01T05:50:17;98294.97;;;8.26;78.92
63554;BME280;49699;48.072;7.800;2023-04-01T05:52:42;98293.09;;;8.28;78.79
63554;BME280;49699;48.072;7.800;2023-04-01T05:55:08;98286.81;;;8.32;78.59
63554;BME280;49699;48.072;7.800;2023-04-01T05:57:34;98290.13;;;8.34;78.37
63554;BME280;49699;48.072;7.800;2023-04-01T05:59:59;98277.91;;;8.37;78.34
63554;BME280;49699;48.072;7.800;2023-04-01T06:02:25;98287.97;;;8.41;78.14
63554;BME280;49699;48.072;7.800;2023-04-01T06:04:53;98281.81;;;8.42;78.35
63554;BME280;49699;48.072;7.800;2023-04-01T06:07:19;98293.88;;;8.43;78.13
63554;BME280;49699;48.072;7.800;2023-04-01T06:09:45;98277.38;;;8.44;78.14
63554;BME280;49699;48.072;7.800;2023-04-01T06:23:00;98283.81;;;8.64;77.12
63554;BME280;49699;48.072;7.800;2023-04-01T06:30:43;98292.84;;;8.71;76.97
63554;BME280;49699;48.072;7.800;2023-04-01T06:38:42;98293.47;;;8.75;76.44
63554;BME280;49699;48.072;7.800;2023-04-01T06:46:57;98285.06;;;8.84;75.68
63554;BME280;49699;48.072;7.800;2023-04-01T06:52:53;98292.31;;;8.91;75.19
63554;BME280;49699;48.072;7.800;2023-04-01T06:55:51;98282.56;;;8.95;75.36
63554;BME280;49699;48.072;7.800;2023-04-01T06:58:31;98277.13;;;8.98;75.29
63554;BME280;49699;48.072;7.800;2023-04-01T07:01:00;98284.72;;;9.01;74.99
63554;BME280;49699;48.072;7.800;2023-04-01T07:03:35;98290.63;;;9.03;74.48
63554;BME280;49699;48.072;7.800;2023-04-01T07:06:26;98282.84;;;9.03;74.41
63554;BME280;49699;48.072;7.800;2023-04-01T07:08:53;98283.47;;;9.07;73.97
63554;BME280;49699;48.072;7.800;2023-04-01T07:11:24;98283.25;;;9.10;74.28
63554;BME280;49699;48.072;7.800;2023-04-01T07:14:12;98292.47;;;9.14;74.55
63554;BME280;49699;48.072;7.800;2023-04-01T07:16:42;98288.72;;;9.18;74.06
63554;BME280;49699;48.072;7.800;2023-04-01T07:19:12;98288.41;;;9.22;74.04
63554;BME280;49699;48.072;7.800;2023-04-01T07:22:02;98282.19;;;9.25;74.36
63554;BME280;49699;48.072;7.800;2023-04-01T07:24:48;98286.22;;;9.29;73.90
63554;BME280;49699;48.072;7.800;2023-04-01T07:27:14;98292.16;;;9.31;74.65
63554;BME280;49699;48.072;7.800;2023-04-01T07:29:41;98289.56;;;9.31;74.21
63554;BME280;49699;48.072;7.800;2023-04-01T07:32:14;98294.59;;;9.32;74.10
63554;BME280;49699;48.072;7.800;2023-04-01T07:39:46;98297.59;;;9.39;73.97
63554;BME280;49699;48.072;7.800;2023-04-01T07:48:00;98309.75;;;9.38;74.31
63554;BME280;49699;48.072;7.800;2023-04-01T07:50:34;98315.06;;;9.37;73.93
63554;BME280;49699;48.072;7.800;2023-04-01T08:00:30;98320.88;;;9.40;74.02
63554;BME280;49699;48.072;7.800;2023-04-01T08:05:46;98316.81;;;9.49;73.70
63554;BME280;49699;48.072;7.800;2023-04-01T08:08:19;98322.00;;;9.49;73.64
63554;BME280;49699;48.072;7.800;2023-04-01T08:11:12;98328.72;;;9.52;73.09
63554;BME280;49699;48.072;7.800;2023-04-01T08:22:27;98327.47;;;9.57;73.22
63554;BME280;49699;48.072;7.800;2023-04-01T08:24:56;98332.44;;;9.60;73.05
63554;BME280;49699;48.072;7.800;2023-04-01T08:27:27;98340.88;;;9.64;72.72
63554;BME280;49699;48.072;7.800;2023-04-01T08:29:58;98347.72;;;9.65;72.61
63554;BME280;49699;48.072;7.800;2023-04-01T08:32:25;98341.25;;;9.70;72.62
63554;BME280;49699;48.072;7.800;2023-04-01T08:35:14;98347.78;;;9.76;72.55
63554;BME280;49699;48.072;7.800;2023-04-01T08:37:41;98351.00;;;9.80;72.55
63554;BME280;49699;48.072;7.800;2023-04-01T08:48:31;98353.59;;;9.80;72.48
63554;BME280;49699;48.072;7.800;2023-04-01T08:56:49;98370.22;;;9.77;72.79
63554;BME280;49699;48.072;7.800;2023-04-01T09:04:24;98358.16;;;9.76;72.93
63554;BME280;49699;48.072;7.800;2023-04-01T09:27:46;98366.97;;;9.86;72.97
63554;BME280;49699;48.072;7.800;2023-04-01T09:35:38;98364.81;;;9.80;73.09
63554;BME280;49699;48.072;7.800;2023-04-01T09:48:50;98366.31;;;9.95;72.52
63554;BME280;49699;48.072;7.800;2023-04-01T09:53:54;98368.97;;;10.06;71.59
63554;BME280;49699;48.072;7.800;2023-04-01T09:59:13;98379.66;;;10.15;70.79
63554;BME280;49699;48.072;7.800;2023-04-01T10:02:04;98380.88;;;10.22;70.80
63554;BME280;49699;48.072;7.800;2023-04-01T10:15:25;98392.53;;;10.40;69.43
63554;BME280;49699;48.072;7.800;2023-04-01T10:17:59;98389.72;;;10.43;69.31
63554;BME280;49699;48.072;7.800;2023-04-01T10:20:55;98403.31;;;10.47;68.56
63554;BME280;49699;48.072;7.800;2023-04-01T10:23:39;98396.25;;;10.49;68.06
63554;BME280;49699;48.072;7.800;2023-04-01T10:31:55;98400.50;;;10.50;67.28
63554;BME280;49699;48.072;7.800;2023-04-01T10:37:23;98395.31;;;10.50;67.65
63554;BME280;49699;48.072;7.800;2023-04-01T10:43:16;98418.50;;;10.53;67.73
63554;BME280;49699;48.072;7.800;2023-04-01T10:45:59;98412.94;;;10.57;67.43
63554;BME280;49699;48.072;7.800;2023-04-01T10:48:44;98429.16;;;10.61;67.23
63554;BME280;49699;48.072;7.800;2023-04-01T11:00:40;98412.03;;;10.69;67.46
63554;BME280;49699;48.072;7.800;2023-04-01T11:12:08;98412.25;;;10.66;67.55
63554;BME280;49699;48.072;7.800;2023-04-01T11:14:52;98399.47;;;10.63;67.27
63554;BME280;49699;48.072;7.800;2023-04-01T11:36:28;98413.44;;;10.62;67.89
63554;BME280;49699;48.072;7.800;2023-04-01T12:09:28;98435.91;;;10.63;68.39
63554;BME280;49699;48.072;7.800;2023-04-01T12:14:35;98428.72;;;10.67;68.37
63554;BME280;49699;48.072;7.800;2023-04-01T12:27:12;98421.66;;;10.80;67.92
63554;BME280;49699;48.072;7.800;2023-04-01T12:37:29;98415.41;;;10.94;67.17
63554;BME280;49699;48.072;7.800;2023-04-01T12:50:33;98424.19;;;11.04;66.77
63554;BME280;49699;48.072;7.800;2023-04-01T12:55:46;98425.84;;;11.05;66.81
63554;BME280;49699;48.072;7.800;2023-04-01T13:03:22;98430.34;;;11.03;67.07
63554;BME280;49699;48.072;7.800;2023-04-01T13:11:09;98430.47;;;11.01;67.54
63554;BME280;49699;48.072;7.800;2023-04-01T13:21:15;98419.38;;;11.10;67.52
63554;BME280;49699;48.072;7.800;2023-04-01T13:28:54;98432.16;;;11.25;66.98
63554;BME280;49699;48.072;7.800;2023-04-01T13:31:33;98432.50;;;11.31;66.72
63554;BME280;49699;48.072;7.800;2023-04-01T13:36:37;98428.38;;;11.40;66.15
63554;BME280;49699;48.072;7.800;2023-04-01T13:39:15;98428.25;;;11.41;66.30
63554;BME280;49699;48.072;7.800;2023-04-01T13:47:02;98422.94;;;11.43;65.95
63554;BME280;49699;48.072;7.800;2023-04-01T13:49:45;98419.28;;;11.45;66.16
63554;BME280;49699;48.072;7.800;2023-04-01T13:57:43;98425.19;;;11.59;65.44
63554;BME280;49699;48.072;7.800;2023-04-01T14:29:16;98407.66;;;13.00;61.86
63554;BME280;49699;48.072;7.800;2023-04-01T14:37:07;98423.34;;;13.20;60.91
63554;BME280;49699;48.072;7.800;2023-04-01T14:50:12;98422.66;;;13.18;59.67
63554;BME280;49699;48.072;7.800;2023-04-01T14:52:42;98421.69;;;13.19;60.02
63554;BME280;49699;48.072;7.800;2023-04-01T14:55:51;98431.66;;;13.14;60.01
63554;BME280;49699;48.072;7.800;2023-04-01T15:00:39;98422.91;;;13.15;60.63
63554;BME280;49699;48.072;7.800;2023-04-01T15:03:16;98417.56;;;13.17;60.83
63554;BME280;49699;48.072;7.800;2023-04-01T15:05:47;98418.38;;;13.17;61.28
63554;BME280;49699;48.072;7.800;2023-04-01T15:08:16;98422.69;;;13.28;61.18
63554;BME280;49699;48.072;7.800;2023-04-01T15:18:41;98427.41;;;13.13;61.36
63554;BME280;49699;48.072;7.800;2023-04-01T15:21:18;98416.34;;;13.00;61.60
63554;BME280;49699;48.072;7.800;2023-04-01T15:28:53;98434.53;;;12.91;61.19
63554;BME280;49699;48.072;7.800;2023-04-01T15:31:38;98440.19;;;12.75;61.47
63554;BME280;49699;48.072;7.800;2023-04-01T15:34:20;98443.22;;;12.59;61.84
63554;BME280;49699;48.072;7.800;2023-04-01T15:42:19;98444.31;;;12.25;62.86
63554;BME280;49699;48.072;7.800;2023-04-01T15:49:43;98460.34;;;11.75;65.35
63554;BME280;49699;48.072;7.800;2023-04-01T15:57:23;98476.50;;;11.01;69.84
63554;BME280;49699;48.072;7.800;2023-04-01T16:05:08;98468.34;;;10.47;72.55
63554;BME280;49699;48.072;7.800;2023-04-01T16:07:43;98466.53;;;10.36;72.79
63554;BME280;49699;48.072;7.800;2023-04-01T16:20:35;98471.09;;;10.80;72.25
63554;BME280;49699;48.072;7.800;2023-04-01T16:26:02;98466.91;;;11.12;71.26
63554;BME280;49699;48.072;7.800;2023-04-01T16:28:31;98467.19;;;11.21;71.17
63554;BME280;49699;48.072;7.800;2023-04-01T16:38:32;98462.34;;;11.49;70.55
63554;BME280;49699;48.072;7.800;2023-04-01T16:51:17;98459.28;;;11.44;70.21
63554;BME280;49699;48.072;7.800;2023-04-01T16:56:24;98459.75;;;11.38;70.32
63554;BME280;49699;48.072;7.800;2023-04-01T17:01:41;98459.50;;;11.30;70.33
63554;BME280;49699;48.072;7.800;2023-04-01T17:17:26;98464.81;;;11.18;70.15
63554;BME280;49699;48.072;7.800;2023-04-01T17:20:12;98468.84;;;11.22;70.19
63554;BME280;49699;48.072;7.800;2023-04-01T17:22:54;98468.50;;;11.26;69.74
63554;BME280;49699;48.072;7.800;2023-04-01T17:25:36;98472.41;;;11.32;69.52
63554;BME280;49699;48.072;7.800;2023-04-01T17:35:31;98483.31;;;11.37;69.00
63554;BME280;49699;48.072;7.800;2023-04-01T17:38:03;98488.16;;;11.30;69.19
63554;BME280;49699;48.072;7.800;2023-04-01T17:43:08;98490.03;;;11.17;69.61
63554;BME280;49699;48.072;7.800;2023-04-01T17:45:44;98487.88;;;11.11;69.77
63554;BME280;49699;48.072;7.800;2023-04-01T17:48:30;98497.09;;;11.04;70.01
63554;BME280;49699;48.072;7.800;2023-04-01T18:01:24;98496.69;;;10.62;71.12
63554;BME280;49699;48.072;7.800;2023-04-01T18:09:03;98516.78;;;10.36;71.57
63554;BME280;49699;48.072;7.800;2023-04-01T18:11:34;98517.53;;;10.26;71.93
63554;BME280;49699;48.072;7.800;2023-04-01T18:16:33;98524.63;;;10.11;72.03
63554;BME280;49699;48.072;7.800;2023-04-01T18:19:23;98525.16;;;10.03;72.22
63554;BME280;49699;48.072;7.800;2023-04-01T18:24:49;98528.22;;;9.85;72.59
63554;BME280;49699;48.072;7.800;2023-04-01T18:27:23;98532.16;;;9.78;72.88
63554;BME280;49699;48.072;7.800;2023-04-01T18:29:54;98525.81;;;9.69;72.89
63554;BME280;49699;48.072;7.800;2023-04-01T18:32:34;98527.19;;;9.62;72.90
63554;BME280;49699;48.072;7.800;2023-04-01T18:37:47;98535.69;;;9.51;73.11
63554;BME280;49699;48.072;7.800;2023-04-01T18:40:28;98545.56;;;9.46;72.77
63554;BME280;49699;48.072;7.800;2023-04-01T18:43:02;98545.03;;;9.41;72.97
63554;BME280;49699;48.072;7.800;2023-04-01T18:45:32;98553.88;;;9.38;73.02
63554;BME280;49699;48.072;7.800;2023-04-01T18:48:14;98547.19;;;9.34;72.89
63554;BME280;49699;48.072;7.800;2023-04-01T18:50:54;98548.38;;;9.30;73.26
63554;BME280;49699;48.072;7.800;2023-04-01T18:53:27;98562.38;;;9.28;73.10
63554;BME280;49699;48.072;7.800;2023-04-01T18:55:57;98565.16;;;9.25;73.44
63554;BME280;49699;48.072;7.800;2023-04-01T18:58:45;98566.19;;;9.22;73.24
63554;BME280;49699;48.072;7.800;2023-04-01T19:04:14;98566.59;;;9.16;73.66
63554;BME280;49699;48.072;7.800;2023-04-01T19:06:46;98574.47;;;9.15;73.83
63554;BME280;49699;48.072;7.800;2023-04-01T19:09:27;98578.31;;;9.09;73.99
63554;BME280;49699;48.072;7.800;2023-04-01T19:12:02;98580.28;;;9.05;73.96
63554;BME280;49699;48.072;7.800;2023-04-01T19:14:37;98589.19;;;9.01;74.21
63554;BME280;49699;48.072;7.800;2023-04-01T19:17:15;98587.81;;;8.96;74.48
63554;BME280;49699;48.072;7.800;2023-04-01T19:22:40;98592.41;;;8.92;74.43
63554;BME280;49699;48.072;7.800;2023-04-01T19:25:20;98598.50;;;8.91;74.26
63554;BME280;49699;48.072;7.800;2023-04-01T19:27:50;98590.09;;;8.88;74.20
63554;BME280;49699;48.072;7.800;2023-04-01T19:30:27;98590.91;;;8.88;74.22
63554;BME280;49699;48.072;7.800;2023-04-01T19:35:29;98607.59;;;8.84;73.71
63554;BME280;49699;48.072;7.800;2023-04-01T19:38:11;98598.16;;;8.83;73.59
63554;BME280;49699;48.072;7.800;2023-04-01T19:40:47;98606.97;;;8.81;73.93
63554;BME280;49699;48.072;7.800;2023-04-01T19:50:55;98611.81;;;8.73;74.24
63554;BME280;49699;48.072;7.800;2023-04-01T20:01:11;98617.31;;;8.54;74.35
63554;BME280;49699;48.072;7.800;2023-04-01T20:04:41;98618.25;;;8.53;74.26
63554;BME280;49699;48.072;7.800;2023-04-01T20:06:43;98615.84;;;8.50;74.69
63554;BME280;49699;48.072;7.800;2023-04-01T20:09:25;98619.53;;;8.46;74.50
63554;BME280;49699;48.072;7.800;2023-04-01T20:11:56;98624.00;;;8.44;74.42
63554;BME280;49699;48.072;7.800;2023-04-01T20:25:10;98637.69;;;8.46;73.14
63554;BME280;49699;48.072;7.800;2023-04-01T20:27:39;98649.66;;;8.48;72.87
63554;BME280;49699;48.072;7.800;2023-04-01T20:32:44;98642.63;;;8.50;72.71
63554;BME280;49699;48.072;7.800;2023-04-01T20:37:50;98664.84;;;8.54;72.24
63554;BME280;49699;48.072;7.800;2023-04-01T20:40:23;98659.84;;;8.51;72.24
63554;BME280;49699;48.072;7.800;2023-04-01T20:45:44;98665.13;;;8.50;72.63
63554;BME280;49699;48.072;7.800;2023-04-01T20:53:05;98669.56;;;8.48;72.74
63554;BME280;49699;48.072;7.800;2023-04-01T21:01:19;98696.25;;;8.50;72.75
63554;BME280;49699;48.072;7.800;2023-04-01T21:03:53;98711.06;;;8.48;73.16
63554;BME280;49699;48.072;7.800;2023-04-01T21:09:24;98721.34;;;8.35;74.39
63554;BME280;49699;48.072;7.800;2023-04-01T21:19:41;98726.25;;;8.40;75.15
63554;BME280;49699;48.072;7.800;2023-04-01T21:22:17;98722.63;;;8.42;75.28
63554;BME280;49699;48.072;7.800;2023-04-01T21:24:53;98722.44;;;8.45;75.24
63554;BME280;49699;48.072;7.800;2023-04-01T21:33:20;98734.03;;;8.54;75.03
63554;BME280;49699;48.072;7.800;2023-04-01T21:35:39;98748.59;;;8.56;75.32
63554;BME280;49699;48.072;7.800;2023-04-01T21:40:40;98750.44;;;8.54;75.87
63554;BME280;49699;48.072;7.800;2023-04-01T21:48:29;98742.66;;;8.54;75.68
63554;BME280;49699;48.072;7.800;2023-04-01T22:06:59;98742.75;;;8.53;75.87
63554;BME280;49699;48.072;7.800;2023-04-01T22:12:31;98744.50;;;8.52;75.64
63554;BME280;49699;48.072;7.800;2023-04-01T22:15:03;98745.34;;;8.53;75.53
63554;BME280;49699;48.072;7.800;2023-04-01T22:17:49;98743.66;;;8.52;75.60
63554;BME280;49699;48.072;7.800;2023-04-01T22:20:40;98745.50;;;8.50;75.60
63554;BME280;49699;48.072;7.800;2023-04-01T22:23:20;98745.59;;;8.48;75.39
63554;BME280;49699;48.072;7.800;2023-04-01T22:25:59;98752.47;;;8.49;75.85
63554;BME280;49699;48.072;7.800;2023-04-01T22:28:27;98743.09;;;8.47;75.67
63554;BME280;49699;48.072;7.800;2023-04-01T22:31:01;98742.34;;;8.45;75.59
63554;BME280;49699;48.072;7.800;2023-04-01T22:43:37;98751.63;;;8.34;76.06
63554;BME280;49699;48.072;7.800;2023-04-01T22:46:07;98747.44;;;8.32;76.27
63554;BME280;49699;48.072;7.800;2023-04-01T22:48:41;98745.81;;;8.29;76.70
63554;BME280;49699;48.072;7.800;2023-04-01T22:51:20;98751.94;;;8.28;76.68
63554;BME280;49699;48.072;7.800;2023-04-01T22:56:21;98760.94;;;8.23;77.00
63554;BME280;49699;48.072;7.800;2023-04-01T22:58:56;98754.16;;;8.20;77.28
63554;BME280;49699;48.072;7.800;2023-04-01T23:01:24;98746.66;;;8.16;77.39